createdAt,value
2023-08-18T00:02:00.367Z,3.90
2023-08-18T00:04:28.216Z,4.40
2023-08-18T00:06:55.984Z,4.70
2023-08-18T00:09:25.601Z,4.30
2023-08-18T00:11:53.108Z,4.45
2023-08-18T00:14:20.815Z,5.15
2023-08-18T00:16:48.144Z,4.22
2023-08-18T00:19:15.819Z,4.53
2023-08-18T00:21:43.296Z,5.05
2023-08-18T00:24:10.976Z,4.78
2023-08-18T00:26:38.309Z,5.13
2023-08-18T00:29:05.959Z,4.75
2023-08-18T00:31:33.315Z,4.85
2023-08-18T00:34:01.023Z,4.88
2023-08-18T00:36:29.106Z,4.57
2023-08-18T00:38:56.786Z,4.80
2023-08-18T00:41:24.131Z,4.72
2023-08-18T00:43:51.828Z,3.97
2023-08-18T00:46:19.992Z,4.15
2023-08-18T00:48:48.715Z,4.28
2023-08-18T00:51:16.389Z,4.43
2023-08-18T00:53:44.742Z,4.38
2023-08-18T00:56:13.621Z,4.03
2023-08-18T00:58:41.530Z,4.32
2023-08-18T01:01:09.237Z,4.07
2023-08-18T01:03:37.128Z,4.32
2023-08-18T01:06:04.636Z,5.28
2023-08-18T01:08:32.320Z,4.63
2023-08-18T01:11:19.130Z,5.03
2023-08-18T01:13:52.518Z,5.18
2023-08-18T01:18:48.557Z,5.38
2023-08-18T01:21:16.414Z,4.22
2023-08-18T01:23:44.222Z,5.00
2023-08-18T01:26:11.655Z,5.22
2023-08-18T01:28:39.384Z,4.78
2023-08-18T01:31:10.067Z,4.43
2023-08-18T01:33:45.187Z,3.58
2023-08-18T01:36:25.668Z,4.50
2023-08-18T01:38:53.812Z,4.13
2023-08-18T01:41:23.459Z,4.45
2023-08-18T01:43:51.322Z,3.92
2023-08-18T01:46:18.724Z,4.35
2023-08-18T01:48:46.385Z,4.00
2023-08-18T01:51:13.733Z,4.43
2023-08-18T01:53:41.358Z,4.07
2023-08-18T01:56:08.731Z,4.28
2023-08-18T01:58:36.418Z,4.15
2023-08-18T02:01:03.762Z,4.35
2023-08-18T02:03:31.509Z,4.63
2023-08-18T02:05:58.956Z,4.35
2023-08-18T02:08:26.711Z,4.43
2023-08-18T02:10:54.071Z,4.50
2023-08-18T02:13:21.735Z,5.60
2023-08-18T02:15:49.305Z,4.78
2023-08-18T02:18:17.000Z,4.80
2023-08-18T02:20:44.339Z,4.93
2023-08-18T02:23:11.994Z,5.13
2023-08-18T02:25:39.391Z,4.80
2023-08-18T02:28:07.186Z,4.95
2023-08-18T02:30:34.606Z,5.45
2023-08-18T02:33:02.340Z,4.65
2023-08-18T02:35:29.782Z,5.38
2023-08-18T02:37:57.594Z,5.25
2023-08-18T02:40:25.034Z,5.65
2023-08-18T02:42:52.686Z,6.00
2023-08-18T02:45:21.089Z,5.47
2023-08-18T02:47:48.778Z,5.63
2023-08-18T02:50:16.240Z,5.65
2023-08-18T02:52:43.867Z,5.88
2023-08-18T02:55:11.269Z,5.70
2023-08-18T02:57:39.151Z,6.10
2023-08-18T03:00:07.064Z,5.45
2023-08-18T03:02:34.770Z,6.10
2023-08-18T03:05:04.088Z,7.00
2023-08-18T03:07:31.968Z,6.80
2023-08-18T03:10:01.234Z,5.85
2023-08-18T03:12:28.894Z,6.40
2023-08-18T03:14:56.457Z,7.28
2023-08-18T03:17:24.204Z,6.43
2023-08-18T03:19:51.658Z,7.22
2023-08-18T03:22:19.321Z,6.45
2023-08-18T03:24:46.677Z,5.88
2023-08-18T03:27:14.337Z,6.57
2023-08-18T03:29:41.727Z,7.05
2023-08-18T03:32:09.395Z,7.88
2023-08-18T03:34:36.821Z,6.50
2023-08-18T03:37:04.545Z,7.57
2023-08-18T03:39:31.956Z,6.15
2023-08-18T03:41:59.593Z,6.45
2023-08-18T03:44:26.999Z,6.43
2023-08-18T03:46:54.653Z,5.90
2023-08-18T03:49:22.735Z,6.38
2023-08-18T03:51:50.430Z,6.30
2023-08-18T03:54:17.905Z,6.30
2023-08-18T03:56:46.845Z,6.50
2023-08-18T03:59:14.776Z,5.90
2023-08-18T04:01:42.434Z,5.72
2023-08-18T04:04:09.937Z,5.78
2023-08-18T04:06:37.612Z,5.75
2023-08-18T04:09:10.343Z,5.78
2023-08-18T04:11:37.992Z,5.80
2023-08-18T04:14:06.298Z,5.47
2023-08-18T04:16:34.018Z,6.05
2023-08-18T04:19:05.005Z,5.97
2023-08-18T04:21:33.132Z,5.47
2023-08-18T04:24:01.274Z,6.18
2023-08-18T04:26:30.385Z,5.68
2023-08-18T04:28:57.780Z,5.80
2023-08-18T04:31:25.542Z,5.55
2023-08-18T04:33:53.081Z,6.28
2023-08-18T04:36:20.697Z,5.72
2023-08-18T04:38:48.097Z,5.70
2023-08-18T04:41:15.751Z,6.32
2023-08-18T04:43:43.677Z,6.55
2023-08-18T04:46:11.547Z,6.97
2023-08-18T04:48:39.014Z,5.60
2023-08-18T04:51:06.665Z,6.43
2023-08-18T04:53:34.048Z,5.85
2023-08-18T04:56:04.921Z,7.60
2023-08-18T04:58:32.380Z,10.48
2023-08-18T05:01:01.803Z,8.02
2023-08-18T05:03:29.437Z,6.68
2023-08-18T05:06:09.197Z,6.63
2023-08-18T05:08:37.032Z,6.07
2023-08-18T05:11:06.734Z,6.40
2023-08-18T05:13:34.786Z,6.15
2023-08-18T05:16:02.939Z,5.45
2023-08-18T05:18:30.615Z,6.95
2023-08-18T05:20:58.816Z,6.20
2023-08-18T05:23:26.557Z,7.10
2023-08-18T05:25:58.053Z,5.90
2023-08-18T05:28:29.301Z,5.82
2023-08-18T05:30:57.559Z,5.82
2023-08-18T05:33:25.072Z,6.03
2023-08-18T05:35:52.742Z,5.03
2023-08-18T05:38:20.145Z,5.95
2023-08-18T05:40:51.320Z,4.55
2023-08-18T05:43:22.410Z,5.60
2023-08-18T05:45:50.402Z,5.35
2023-08-18T05:48:17.865Z,4.72
2023-08-18T05:50:45.529Z,5.28
2023-08-18T05:53:12.950Z,5.10
2023-08-18T05:55:41.072Z,5.28
2023-08-18T05:58:10.557Z,5.32
2023-08-18T06:00:38.410Z,5.60
2023-08-18T06:03:05.924Z,5.00
2023-08-18T06:05:35.301Z,5.30
2023-08-18T06:08:02.692Z,5.25
2023-08-18T06:10:30.351Z,5.22
2023-08-18T06:12:57.784Z,5.38
2023-08-18T06:15:25.799Z,6.55
2023-08-18T06:17:53.213Z,5.25
2023-08-18T06:20:20.862Z,6.50
2023-08-18T06:22:48.246Z,7.57
2023-08-18T06:25:15.924Z,6.85
2023-08-18T06:27:43.332Z,6.05
2023-08-18T06:30:12.635Z,6.50
2023-08-18T06:32:40.061Z,6.00
2023-08-18T06:35:08.039Z,5.32
2023-08-18T06:37:35.428Z,6.30
2023-08-18T06:40:03.532Z,5.38
2023-08-18T06:42:31.398Z,6.15
2023-08-18T06:44:59.251Z,5.30
2023-08-18T06:47:26.627Z,6.13
2023-08-18T06:49:54.261Z,5.85
2023-08-18T06:52:21.669Z,6.22
2023-08-18T06:54:49.451Z,5.25
2023-08-18T06:57:17.492Z,5.88
2023-08-18T06:59:45.232Z,5.20
2023-08-18T07:02:12.983Z,5.78
2023-08-18T07:04:40.584Z,5.53
2023-08-18T07:07:07.938Z,5.90
2023-08-18T07:09:35.567Z,5.07
2023-08-18T07:12:03.966Z,5.65
2023-08-18T07:14:31.633Z,4.93
2023-08-18T07:17:00.496Z,4.85
2023-08-18T07:19:28.148Z,4.88
2023-08-18T07:21:55.564Z,4.43
2023-08-18T07:24:23.305Z,4.88
2023-08-18T07:26:50.671Z,4.95
2023-08-18T07:29:18.336Z,4.60
2023-08-18T07:31:46.123Z,4.63
2023-08-18T07:34:13.808Z,5.07
2023-08-18T07:36:41.230Z,5.25
2023-08-18T07:39:11.520Z,4.75
2023-08-18T07:41:44.826Z,5.97
2023-08-18T07:44:12.825Z,6.57
2023-08-18T07:46:40.244Z,4.80
2023-08-18T07:49:07.889Z,5.07
2023-08-18T07:51:35.268Z,6.15
2023-08-18T07:54:02.927Z,7.93
2023-08-18T07:56:30.341Z,5.68
2023-08-18T07:58:58.295Z,5.47
2023-08-18T08:01:25.693Z,5.85
2023-08-18T08:03:53.611Z,5.18
2023-08-18T08:06:21.015Z,5.63
2023-08-18T08:08:48.699Z,5.30
2023-08-18T08:11:16.086Z,6.18
2023-08-18T08:13:45.220Z,5.18
2023-08-18T08:16:12.659Z,5.30
2023-08-18T08:18:40.466Z,5.97
2023-08-18T08:21:08.186Z,5.38
2023-08-18T08:23:35.822Z,5.90
2023-08-18T08:26:03.266Z,5.10
2023-08-18T08:28:30.931Z,5.68
2023-08-18T08:30:58.361Z,6.53
2023-08-18T08:33:26.163Z,5.75
2023-08-18T08:35:53.723Z,5.90
2023-08-18T08:38:21.532Z,5.60
2023-08-18T08:40:52.809Z,5.32
2023-08-18T08:43:20.718Z,6.50
2023-08-18T08:45:48.144Z,5.85
2023-08-18T08:48:19.895Z,5.63
2023-08-18T08:50:49.694Z,5.28
2023-08-18T08:53:20.460Z,5.38
2023-08-18T08:55:49.108Z,5.53
2023-08-18T08:58:17.144Z,5.88
2023-08-18T09:00:46.283Z,5.90
2023-08-18T09:03:14.930Z,5.50
2023-08-18T09:05:42.406Z,5.97
2023-08-18T09:08:10.142Z,5.28
2023-08-18T09:10:40.321Z,5.20
2023-08-18T09:13:09.663Z,5.15
2023-08-18T09:15:37.072Z,5.03
2023-08-18T09:18:05.021Z,5.10
2023-08-18T09:20:32.498Z,5.20
2023-08-18T09:23:00.306Z,4.97
2023-08-18T09:25:28.982Z,5.28
2023-08-18T09:27:56.977Z,5.30
2023-08-18T09:30:27.773Z,4.68
2023-08-18T09:32:55.659Z,4.97
2023-08-18T09:35:23.321Z,4.88
2023-08-18T09:38:00.722Z,4.50
2023-08-18T09:40:28.100Z,4.80
2023-08-18T09:42:56.306Z,4.38
2023-08-18T09:45:25.224Z,4.43
2023-08-18T09:47:58.599Z,4.78
2023-08-18T09:50:26.470Z,5.82
2023-08-18T09:52:55.730Z,5.50
2023-08-18T09:55:38.872Z,5.57
2023-08-18T09:58:17.115Z,5.43
2023-08-18T10:00:45.387Z,5.13
2023-08-18T10:03:19.343Z,5.07
2023-08-18T10:05:48.569Z,5.15
2023-08-18T10:08:16.228Z,5.43
2023-08-18T10:10:44.006Z,4.85
2023-08-18T10:13:12.927Z,5.55
2023-08-18T10:15:40.627Z,5.45
2023-08-18T10:18:12.700Z,5.15
2023-08-18T10:20:50.371Z,4.80
2023-08-18T10:23:19.823Z,4.50
2023-08-18T10:25:47.597Z,5.32
2023-08-18T10:28:19.423Z,4.55
2023-08-18T10:30:59.277Z,4.25
2023-08-18T10:33:39.471Z,4.15
2023-08-18T10:36:09.079Z,4.03
2023-08-18T10:38:37.361Z,3.80
2023-08-18T10:41:04.846Z,3.90
2023-08-18T10:43:42.043Z,3.50
2023-08-18T10:46:13.427Z,3.83
2023-08-18T10:48:41.413Z,3.95
2023-08-18T10:51:09.024Z,4.03
2023-08-18T10:53:38.311Z,5.10
2023-08-18T10:56:06.387Z,4.70
2023-08-18T10:58:35.812Z,4.50
2023-08-18T11:01:04.460Z,3.40
2023-08-18T11:03:32.411Z,3.38
2023-08-18T11:05:59.912Z,3.08
2023-08-18T11:08:27.970Z,3.35
2023-08-18T11:10:55.566Z,3.50
2023-08-18T11:13:27.337Z,3.10
2023-08-18T11:15:55.515Z,3.58
2023-08-18T11:18:23.482Z,3.45
2023-08-18T11:20:52.572Z,2.97
2023-08-18T11:23:20.590Z,3.30
2023-08-18T11:25:48.450Z,3.65
2023-08-18T11:28:16.512Z,4.43
2023-08-18T11:30:44.976Z,4.53
2023-08-18T11:33:12.898Z,4.70
2023-08-18T11:35:40.330Z,4.22
2023-08-18T11:38:09.494Z,4.68
2023-08-18T11:40:41.406Z,4.25
2023-08-18T11:43:12.704Z,3.50
2023-08-18T11:45:40.512Z,4.32
2023-08-18T11:48:08.955Z,4.03
2023-08-18T11:50:37.484Z,3.58
2023-08-18T11:53:06.019Z,3.40
2023-08-18T11:55:46.053Z,3.40
2023-08-18T11:58:15.995Z,3.30
2023-08-18T12:00:45.106Z,3.00
2023-08-18T12:03:29.595Z,3.30
2023-08-18T12:06:00.729Z,3.05
2023-08-18T12:08:28.848Z,3.22
2023-08-18T12:10:58.378Z,3.30
2023-08-18T12:13:31.514Z,3.00
2023-08-18T12:15:59.078Z,3.58
2023-08-18T12:18:26.844Z,2.97
2023-08-18T12:20:53.818Z,3.00
2023-08-18T12:23:21.576Z,3.22
2023-08-18T12:25:49.818Z,3.15
2023-08-18T12:28:19.143Z,3.25
2023-08-18T12:30:46.535Z,3.13
2023-08-18T12:33:14.279Z,3.60
2023-08-18T12:35:41.624Z,3.33
2023-08-18T12:38:09.617Z,3.47
2023-08-18T12:40:37.117Z,3.47
2023-08-18T12:43:04.780Z,3.33
2023-08-18T12:45:32.297Z,3.15
2023-08-18T12:47:59.955Z,3.42
2023-08-18T12:50:27.457Z,3.35
2023-08-18T12:52:55.120Z,3.40
2023-08-18T12:55:22.558Z,3.40
2023-08-18T12:57:50.220Z,3.83
2023-08-18T13:00:20.214Z,3.90
2023-08-18T13:02:47.893Z,3.97
2023-08-18T13:05:15.367Z,4.10
2023-08-18T13:07:43.049Z,4.05
2023-08-18T13:10:10.587Z,3.53
2023-08-18T13:12:38.353Z,3.58
2023-08-18T13:15:06.172Z,3.60
2023-08-18T13:17:38.943Z,3.75
2023-08-18T13:20:07.710Z,4.18
2023-08-18T13:22:41.749Z,3.80
2023-08-18T13:25:11.699Z,4.25
2023-08-18T13:27:40.479Z,4.38
2023-08-18T13:30:09.742Z,3.80
2023-08-18T13:32:37.865Z,4.63
2023-08-18T13:35:05.722Z,4.30
2023-08-18T13:37:33.418Z,4.03
2023-08-18T13:40:00.808Z,3.63
2023-08-18T13:42:28.631Z,4.65
2023-08-18T13:44:56.237Z,4.25
2023-08-18T13:47:23.943Z,3.97
2023-08-18T13:49:51.316Z,4.40
2023-08-18T13:52:19.046Z,4.63
2023-08-18T13:54:46.476Z,5.32
2023-08-18T13:57:15.309Z,3.95
2023-08-18T13:59:42.705Z,4.10
2023-08-18T14:02:10.332Z,4.00
2023-08-18T14:04:37.807Z,3.78
2023-08-18T14:07:05.527Z,4.07
2023-08-18T14:09:33.436Z,4.20
2023-08-18T14:12:02.428Z,4.35
2023-08-18T14:14:29.938Z,3.58
2023-08-18T14:16:59.617Z,4.00
2023-08-18T14:19:29.098Z,4.07
2023-08-18T14:21:56.964Z,3.92
2023-08-18T14:24:24.328Z,3.80
2023-08-18T14:26:51.989Z,4.13
2023-08-18T14:29:21.379Z,4.82
2023-08-18T14:31:49.219Z,4.05
2023-08-18T14:34:16.665Z,4.13
2023-08-18T14:36:44.495Z,4.00
2023-08-18T14:39:11.843Z,3.90
2023-08-18T14:41:39.563Z,4.20
2023-08-18T14:44:07.456Z,4.25
2023-08-18T14:46:35.512Z,4.45
2023-08-18T14:49:05.276Z,4.28
2023-08-18T14:51:33.410Z,4.18
2023-08-18T14:54:00.761Z,4.82
2023-08-18T14:56:28.547Z,4.70
2023-08-18T14:58:55.924Z,4.60
2023-08-18T15:01:23.595Z,4.05
2023-08-18T15:03:51.140Z,4.63
2023-08-18T15:06:18.850Z,4.70
2023-08-18T15:08:46.225Z,4.75
2023-08-18T15:11:13.969Z,4.07
2023-08-18T15:13:43.560Z,4.43
2023-08-18T15:16:11.269Z,4.70
2023-08-18T15:18:38.667Z,4.47
2023-08-18T15:21:06.327Z,4.22
2023-08-18T15:23:33.692Z,4.60
2023-08-18T15:26:01.398Z,4.03
2023-08-18T15:28:28.756Z,4.53
2023-08-18T15:30:56.401Z,4.55
2023-08-18T15:33:23.954Z,4.65
2023-08-18T15:35:51.618Z,4.95
2023-08-18T15:38:19.106Z,4.57
2023-08-18T15:40:46.747Z,4.60
2023-08-18T15:43:14.117Z,4.70
2023-08-18T15:45:48.394Z,4.72
2023-08-18T15:48:16.177Z,4.57
2023-08-18T15:50:44.221Z,4.90
2023-08-18T15:53:11.756Z,4.47
2023-08-18T15:55:46.219Z,4.50
2023-08-18T15:58:14.898Z,4.53
2023-08-18T16:00:42.612Z,4.55
2023-08-18T16:03:09.996Z,4.30
2023-08-18T16:05:38.314Z,4.30
2023-08-18T16:08:09.491Z,4.45
2023-08-18T16:10:40.562Z,4.28
2023-08-18T16:13:07.981Z,4.85
2023-08-18T16:15:45.481Z,5.13
2023-08-18T16:18:17.140Z,4.50
2023-08-18T16:20:45.124Z,5.20
2023-08-18T16:23:12.490Z,5.63
2023-08-18T16:25:40.234Z,4.88
2023-08-18T16:28:07.806Z,4.65
2023-08-18T16:30:35.534Z,4.80
2023-08-18T16:33:03.074Z,4.65
2023-08-18T16:35:31.688Z,4.97
2023-08-18T16:37:59.181Z,5.15
2023-08-18T16:40:26.845Z,5.35
2023-08-18T16:42:57.606Z,5.30
2023-08-18T16:45:25.610Z,5.10
2023-08-18T16:47:52.989Z,5.32
2023-08-18T16:50:20.984Z,5.40
2023-08-18T16:52:49.107Z,5.72
2023-08-18T16:55:16.888Z,5.75
2023-08-18T16:57:44.259Z,5.65
2023-08-18T17:00:12.293Z,5.30
2023-08-18T17:02:39.726Z,5.32
2023-08-18T17:05:08.548Z,5.57
2023-08-18T17:07:36.777Z,5.57
2023-08-18T17:10:04.628Z,5.60
2023-08-18T17:12:32.002Z,6.28
2023-08-18T17:14:59.695Z,6.88
2023-08-18T17:17:27.448Z,5.57
2023-08-18T17:19:55.161Z,6.65
2023-08-18T17:22:22.524Z,6.30
2023-08-18T17:24:49.916Z,7.22
2023-08-18T17:27:17.611Z,17.13
2023-08-18T17:29:44.995Z,15.20
2023-08-18T17:32:12.686Z,27.25
2023-08-18T17:34:40.020Z,13.05
2023-08-18T17:37:07.723Z,11.63
2023-08-18T17:39:35.076Z,11.20
2023-08-18T17:42:05.026Z,18.52
2023-08-18T17:44:32.472Z,18.85
2023-08-18T17:47:02.049Z,22.45
2023-08-18T17:49:29.499Z,20.90
2023-08-18T17:51:57.402Z,13.55
2023-08-18T17:54:24.912Z,9.25
2023-08-18T17:56:52.571Z,9.32
2023-08-18T17:59:20.011Z,9.23
2023-08-18T18:01:49.642Z,9.95
2023-08-18T18:04:16.999Z,10.38
2023-08-18T18:06:44.623Z,9.32
2023-08-18T18:09:12.011Z,10.60
2023-08-18T18:11:39.701Z,13.32
2023-08-18T18:14:07.142Z,11.40
2023-08-18T18:16:34.985Z,9.18
2023-08-18T18:19:02.343Z,9.32
2023-08-18T18:21:30.105Z,8.68
2023-08-18T18:23:57.440Z,9.55
2023-08-18T18:26:28.509Z,9.57
2023-08-18T18:28:55.877Z,9.43
2023-08-18T18:31:24.923Z,9.27
2023-08-18T18:33:52.386Z,8.60
2023-08-18T18:36:20.079Z,9.23
2023-08-18T18:38:47.465Z,8.90
2023-08-18T18:41:15.104Z,8.75
2023-08-18T18:43:42.659Z,8.57
2023-08-18T18:46:10.655Z,9.10
2023-08-18T18:48:38.168Z,8.60
2023-08-18T18:51:06.381Z,8.70
2023-08-18T18:53:34.510Z,8.73
2023-08-18T18:56:02.906Z,9.25
2023-08-18T18:58:30.334Z,8.93
2023-08-18T19:00:57.984Z,8.50
2023-08-18T19:03:25.443Z,8.65
2023-08-18T19:05:53.071Z,9.10
2023-08-18T19:08:20.469Z,9.30
2023-08-18T19:10:48.541Z,10.07
2023-08-18T19:13:15.909Z,9.93
2023-08-18T19:15:43.596Z,10.20
2023-08-18T19:18:15.499Z,10.10
2023-08-18T19:20:44.612Z,9.90
2023-08-18T19:23:12.008Z,10.05
2023-08-18T19:25:45.853Z,10.77
2023-08-18T19:28:14.638Z,10.40
2023-08-18T19:30:42.084Z,9.70
2023-08-18T19:33:10.378Z,10.48
2023-08-18T19:35:38.417Z,11.05
2023-08-18T19:38:06.973Z,9.88
2023-08-18T19:40:38.014Z,11.48
2023-08-18T19:43:05.936Z,9.93
2023-08-18T19:45:33.371Z,9.98
2023-08-18T19:48:01.073Z,10.48
2023-08-18T19:50:29.626Z,10.70
2023-08-18T19:52:57.282Z,10.32
2023-08-18T19:55:24.711Z,10.68
2023-08-18T19:57:52.410Z,9.68
2023-08-18T20:00:19.810Z,9.15
2023-08-18T20:02:47.644Z,10.07
2023-08-18T20:05:15.248Z,9.63
2023-08-18T20:07:42.990Z,11.60
2023-08-18T20:10:10.496Z,10.45
2023-08-18T20:12:38.193Z,10.45
2023-08-18T20:15:06.184Z,11.73
2023-08-18T20:17:38.183Z,11.13
2023-08-18T20:20:06.938Z,11.27
2023-08-18T20:22:35.774Z,11.15
2023-08-18T20:25:04.011Z,11.95
2023-08-18T20:27:31.663Z,11.68
2023-08-18T20:30:02.706Z,11.50
2023-08-18T20:32:31.670Z,11.45
2023-08-18T20:34:59.942Z,11.75
2023-08-18T20:37:27.679Z,12.60
2023-08-18T20:39:55.075Z,12.55
2023-08-18T20:42:25.780Z,12.80
2023-08-18T20:44:53.493Z,11.98
2023-08-18T20:47:21.163Z,12.23
2023-08-18T20:49:48.564Z,12.43
2023-08-18T20:52:16.214Z,12.73
2023-08-18T20:54:43.580Z,12.02
2023-08-18T20:57:11.336Z,13.15
2023-08-18T20:59:38.733Z,12.25
2023-08-18T21:02:06.532Z,12.98
2023-08-18T21:04:33.955Z,13.07
2023-08-18T21:07:01.716Z,12.65
2023-08-18T21:09:29.072Z,11.95
2023-08-18T21:11:56.823Z,12.57
2023-08-18T21:14:25.034Z,12.40
2023-08-18T21:16:52.697Z,12.75
2023-08-18T21:19:20.034Z,12.73
2023-08-18T21:21:48.038Z,12.05
2023-08-18T21:24:15.384Z,12.32
2023-08-18T21:26:43.042Z,11.98
2023-08-18T21:29:10.459Z,13.18
2023-08-18T21:31:38.127Z,11.80
2023-08-18T21:34:05.559Z,13.48
2023-08-18T21:36:33.226Z,12.43
2023-08-18T21:39:05.971Z,13.25
2023-08-18T21:44:01.810Z,12.95
2023-08-18T21:46:29.509Z,13.25
2023-08-18T21:48:56.910Z,14.18
2023-08-18T21:51:24.968Z,14.75
2023-08-18T21:53:52.448Z,14.40
2023-08-18T21:56:20.276Z,13.13
2023-08-18T21:58:47.672Z,14.95
2023-08-18T22:01:15.442Z,13.55
2023-08-18T22:03:43.072Z,13.40
2023-08-18T22:06:11.354Z,13.35
2023-08-18T22:08:38.798Z,14.45
2023-08-18T22:11:06.454Z,13.15
2023-08-18T22:13:33.918Z,15.02
2023-08-18T22:16:02.353Z,12.80
2023-08-18T22:18:29.895Z,13.68
2023-08-18T22:20:57.544Z,14.30
2023-08-18T22:23:24.945Z,13.95
2023-08-18T22:25:52.607Z,13.23
2023-08-18T22:28:20.072Z,13.82
2023-08-18T22:30:48.377Z,14.25
2023-08-18T22:33:15.764Z,14.52
2023-08-18T22:35:43.512Z,14.40
2023-08-18T22:38:10.864Z,14.77
2023-08-18T22:40:38.544Z,14.25
2023-08-18T22:43:06.209Z,15.40
2023-08-18T22:45:33.924Z,14.98
2023-08-18T22:48:01.336Z,14.48
2023-08-18T22:50:29.095Z,14.35
2023-08-18T22:52:56.482Z,15.45
2023-08-18T22:55:24.152Z,16.98
2023-08-18T22:57:51.486Z,15.30
2023-08-18T23:00:19.220Z,14.85
2023-08-18T23:02:50.542Z,15.38
2023-08-18T23:05:18.678Z,15.10
2023-08-18T23:07:46.207Z,16.45
2023-08-18T23:10:13.942Z,16.77
2023-08-18T23:12:41.338Z,15.90
2023-08-18T23:15:10.557Z,17.02
2023-08-18T23:17:38.038Z,16.98
2023-08-18T23:20:07.237Z,15.00
2023-08-18T23:22:34.709Z,16.25
2023-08-18T23:25:07.470Z,14.93
2023-08-18T23:27:34.869Z,15.30
2023-08-18T23:30:02.539Z,14.50
2023-08-18T23:32:30.126Z,15.27
2023-08-18T23:34:57.800Z,15.63
2023-08-18T23:37:25.180Z,15.48
2023-08-18T23:39:53.091Z,14.98
2023-08-18T23:42:20.493Z,15.52
2023-08-18T23:44:48.172Z,16.13
2023-08-18T23:47:15.737Z,16.10
2023-08-18T23:49:43.391Z,15.60
2023-08-18T23:52:10.737Z,15.45
2023-08-18T23:54:39.120Z,15.13
2023-08-18T23:57:06.541Z,15.48
2023-08-18T23:59:34.471Z,16.38
